createdAt,value
2018-12-08T00:00:28.932Z,13.57
2018-12-08T00:02:56.988Z,10.97
2018-12-08T00:05:24.835Z,9.67
2018-12-08T00:07:52.690Z,11.07
2018-12-08T00:10:20.593Z,9.00
2018-12-08T00:12:48.629Z,12.23
2018-12-08T00:15:16.526Z,6.10
2018-12-08T00:17:44.616Z,13.17
2018-12-08T00:20:12.486Z,8.37
2018-12-08T00:22:40.755Z,12.90
2018-12-08T00:25:08.794Z,17.70
2018-12-08T00:27:36.866Z,9.63
2018-12-08T00:30:10.471Z,14.20
2018-12-08T00:32:38.944Z,11.77
2018-12-08T00:35:07.058Z,7.93
2018-12-08T00:37:35.115Z,9.90
2018-12-08T00:40:03.549Z,8.03
2018-12-08T00:42:31.377Z,12.90
2018-12-08T00:44:59.429Z,10.33
2018-12-08T00:47:27.249Z,13.00
2018-12-08T00:49:55.222Z,12.83
2018-12-08T00:52:23.212Z,11.87
2018-12-08T00:54:51.182Z,12.83
2018-12-08T00:57:18.976Z,14.03
2018-12-08T00:59:47.157Z,11.30
2018-12-08T01:02:14.990Z,11.23
2018-12-08T01:07:40.523Z,13.90
2018-12-08T01:10:08.611Z,17.60
2018-12-08T01:12:38.507Z,11.27
2018-12-08T01:15:06.472Z,13.53
2018-12-08T01:17:45.906Z,13.63
2018-12-08T01:20:13.828Z,9.50
2018-12-08T01:22:46.561Z,16.50
2018-12-08T01:25:14.419Z,10.73
2018-12-08T01:27:44.552Z,10.67
2018-12-08T01:30:12.356Z,14.27
2018-12-08T01:32:50.963Z,14.57
2018-12-08T01:35:19.047Z,12.87
2018-12-08T01:37:52.612Z,9.40
2018-12-08T01:40:20.513Z,10.63
2018-12-08T01:42:55.956Z,12.90
2018-12-08T01:45:24.440Z,10.17
2018-12-08T01:47:56.592Z,10.47
2018-12-08T01:50:24.693Z,10.50
2018-12-08T01:58:51.747Z,15.53
2018-12-08T02:01:19.573Z,11.83
2018-12-08T02:12:28.826Z,9.67
2018-12-08T02:14:56.975Z,10.43
2018-12-08T02:20:18.335Z,17.23
2018-12-08T02:22:46.205Z,10.07
2018-12-08T02:25:14.454Z,14.53
2018-12-08T02:27:42.414Z,14.37
2018-12-08T02:30:10.425Z,17.83
2018-12-08T02:32:38.491Z,16.63
2018-12-08T02:35:06.377Z,18.67
2018-12-08T02:37:34.431Z,22.20
2018-12-08T02:40:02.596Z,11.07
2018-12-08T02:42:30.429Z,17.97
2018-12-08T02:44:58.428Z,13.73
2018-12-08T02:47:26.246Z,19.73
2018-12-08T02:49:54.115Z,19.07
2018-12-08T02:52:21.951Z,16.80
2018-12-08T02:54:50.130Z,11.90
2018-12-08T02:57:18.163Z,19.87
2018-12-08T02:59:46.008Z,21.97
2018-12-08T03:02:13.860Z,11.83
2018-12-08T03:04:41.675Z,15.13
2018-12-08T03:07:09.637Z,16.20
2018-12-08T03:09:37.561Z,14.40
2018-12-08T03:12:05.497Z,13.70
2018-12-08T03:14:33.324Z,16.80
2018-12-08T03:17:01.253Z,20.70
2018-12-08T03:19:29.049Z,14.63
2018-12-08T03:21:57.041Z,17.00
2018-12-08T03:24:25.093Z,17.80
2018-12-08T03:26:52.943Z,21.00
2018-12-08T03:29:20.792Z,17.50
2018-12-08T03:31:48.670Z,16.33
2018-12-08T03:34:16.583Z,17.53
2018-12-08T03:36:44.453Z,14.17
2018-12-08T03:39:12.275Z,16.90
2018-12-08T03:41:40.335Z,21.17
2018-12-08T03:44:08.168Z,19.93
2018-12-08T03:46:36.287Z,16.27
2018-12-08T03:49:04.129Z,19.13
2018-12-08T03:51:31.964Z,19.70
2018-12-08T03:53:59.786Z,13.97
2018-12-08T03:56:27.602Z,15.27
2018-12-08T03:58:55.412Z,27.27
2018-12-08T04:01:23.298Z,14.27
2018-12-08T04:03:51.343Z,19.27
2018-12-08T04:06:19.186Z,14.30
2018-12-08T04:08:46.993Z,21.57
2018-12-08T04:11:14.830Z,23.93
2018-12-08T04:13:42.689Z,23.30
2018-12-08T04:16:10.675Z,26.27
2018-12-08T04:18:38.510Z,20.20
2018-12-08T04:21:06.813Z,25.00
2018-12-08T04:23:34.914Z,14.10
2018-12-08T04:26:02.985Z,20.50
2018-12-08T04:28:31.016Z,20.30
2018-12-08T04:30:58.847Z,16.67
2018-12-08T04:33:26.749Z,18.50
2018-12-08T04:35:54.842Z,20.77
2018-12-08T04:38:23.105Z,19.93
2018-12-08T04:40:50.917Z,17.30
2018-12-08T04:43:18.840Z,19.43
2018-12-08T04:45:46.712Z,21.97
2018-12-08T04:48:14.578Z,20.30
2018-12-08T04:50:42.458Z,22.47
2018-12-08T04:53:10.290Z,25.03
2018-12-08T04:55:38.158Z,21.70
2018-12-08T04:58:06.096Z,18.07
2018-12-08T05:00:34.079Z,18.80
2018-12-08T05:03:01.920Z,19.87
2018-12-08T05:05:29.785Z,15.57
2018-12-08T05:07:57.629Z,21.07
2018-12-08T05:10:25.453Z,17.40
2018-12-08T05:12:53.282Z,19.67
2018-12-08T05:15:21.154Z,13.57
2018-12-08T05:17:48.985Z,24.73
2018-12-08T05:20:16.945Z,20.70
2018-12-08T05:22:44.828Z,17.93
2018-12-08T05:25:12.696Z,24.87
2018-12-08T05:27:40.557Z,15.07
2018-12-08T05:30:09.539Z,15.73
2018-12-08T05:32:37.403Z,15.30
2018-12-08T05:35:05.392Z,17.77
2018-12-08T05:37:33.288Z,12.17
2018-12-08T05:40:01.135Z,16.03
2018-12-08T05:42:29.068Z,16.50
2018-12-08T05:44:56.870Z,14.07
2018-12-08T05:47:24.844Z,20.00
2018-12-08T05:49:53.129Z,10.07
2018-12-08T05:52:21.309Z,15.20
2018-12-08T05:54:49.160Z,20.50
2018-12-08T05:57:17.066Z,15.53
2018-12-08T05:59:44.929Z,18.27
2018-12-08T06:02:12.854Z,16.87
2018-12-08T06:04:40.719Z,11.50
2018-12-08T06:07:08.640Z,18.10
2018-12-08T06:09:36.537Z,20.80
2018-12-08T06:12:04.410Z,18.20
2018-12-08T06:14:32.234Z,22.00
2018-12-08T06:17:00.103Z,18.13
2018-12-08T06:19:27.938Z,17.10
2018-12-08T06:21:55.804Z,23.73
2018-12-08T06:24:23.631Z,12.87
2018-12-08T06:27:25.067Z,12.80
2018-12-08T06:29:52.938Z,13.73
2018-12-08T06:32:21.894Z,19.03
2018-12-08T06:34:49.723Z,14.27
2018-12-08T06:37:17.615Z,14.87
2018-12-08T06:39:45.523Z,13.70
2018-12-08T06:42:13.355Z,14.10
2018-12-08T06:44:41.188Z,15.70
2018-12-08T06:47:09.102Z,22.80
2018-12-08T06:49:36.962Z,14.80
2018-12-08T06:52:04.829Z,15.70
2018-12-08T06:54:32.700Z,15.27
2018-12-08T06:57:00.516Z,20.90
2018-12-08T06:59:28.357Z,12.37
2018-12-08T07:01:56.167Z,14.47
2018-12-08T07:04:24.035Z,13.43
2018-12-08T07:06:51.892Z,13.80
2018-12-08T07:09:19.687Z,14.03
2018-12-08T07:11:47.570Z,15.63
2018-12-08T07:14:15.411Z,14.60
2018-12-08T07:16:43.281Z,22.10
2018-12-08T07:19:11.194Z,15.50
2018-12-08T07:21:39.074Z,21.30
2018-12-08T07:24:06.913Z,14.70
2018-12-08T07:26:34.811Z,13.63
2018-12-08T07:29:02.668Z,16.63
2018-12-08T07:31:30.696Z,17.73
2018-12-08T07:33:59.212Z,18.80
2018-12-08T07:36:27.060Z,19.63
2018-12-08T07:38:54.888Z,19.63
2018-12-08T07:41:22.753Z,15.07
2018-12-08T07:43:50.583Z,17.20
2018-12-08T07:46:18.443Z,21.90
2018-12-08T07:48:46.266Z,16.83
2018-12-08T07:51:14.770Z,16.70
2018-12-08T07:53:42.678Z,13.93
2018-12-08T07:56:11.580Z,14.43
2018-12-08T07:58:39.451Z,18.10
2018-12-08T08:01:07.271Z,12.43
2018-12-08T08:03:35.121Z,17.00
2018-12-08T08:06:02.977Z,17.60
2018-12-08T08:08:30.847Z,17.23
2018-12-08T08:10:58.677Z,15.30
2018-12-08T08:13:26.500Z,10.47
2018-12-08T08:15:54.307Z,19.80
2018-12-08T08:18:22.117Z,16.33
2018-12-08T08:20:50.028Z,18.63
2018-12-08T08:23:17.896Z,18.07
2018-12-08T08:25:45.707Z,10.60
2018-12-08T08:28:13.584Z,10.70
2018-12-08T08:30:41.423Z,12.23
2018-12-08T08:33:09.285Z,12.33
2018-12-08T08:35:37.094Z,14.43
2018-12-08T08:38:05.968Z,18.17
2018-12-08T08:40:33.806Z,14.00
2018-12-08T08:43:01.634Z,15.00
2018-12-08T08:45:29.521Z,18.47
2018-12-08T08:47:57.338Z,19.60
2018-12-08T08:50:25.129Z,17.00
2018-12-08T08:52:52.961Z,15.50
2018-12-08T08:55:20.935Z,15.33
2018-12-08T08:57:48.798Z,13.77
2018-12-08T09:00:16.644Z,21.57
2018-12-08T09:02:44.562Z,14.70
2018-12-08T09:05:12.453Z,17.20
2018-12-08T09:07:40.467Z,19.07
2018-12-08T09:10:09.407Z,14.47
2018-12-08T09:12:37.265Z,13.40
2018-12-08T09:15:05.684Z,16.63
2018-12-08T09:17:33.543Z,16.83
2018-12-08T09:20:01.515Z,15.00
2018-12-08T09:22:29.360Z,10.70
2018-12-08T09:24:57.192Z,14.83
2018-12-08T09:27:25.111Z,11.97
2018-12-08T09:29:53.373Z,10.70
2018-12-08T09:32:21.671Z,14.10
2018-12-08T09:34:49.733Z,19.40
2018-12-08T09:37:22.750Z,17.47
2018-12-08T09:39:51.024Z,14.33
2018-12-08T09:42:19.053Z,13.73
2018-12-08T09:44:47.138Z,18.30
2018-12-08T09:47:15.802Z,13.23
2018-12-08T09:49:43.700Z,13.97
2018-12-08T09:52:11.969Z,9.60
2018-12-08T09:54:39.783Z,12.87
2018-12-08T09:57:07.775Z,16.53
2018-12-08T09:59:35.746Z,12.20
2018-12-08T10:02:03.982Z,18.73
2018-12-08T10:04:31.915Z,7.73
2018-12-08T10:06:59.973Z,10.10
2018-12-08T10:09:27.910Z,11.20
2018-12-08T10:11:55.892Z,14.73
2018-12-08T10:14:23.777Z,16.40
2018-12-08T10:16:51.861Z,12.43
2018-12-08T10:19:19.710Z,16.27
2018-12-08T10:21:47.808Z,12.17
2018-12-08T10:24:15.830Z,8.03
2018-12-08T10:26:43.903Z,14.53
2018-12-08T10:29:11.950Z,10.53
2018-12-08T10:31:39.834Z,5.90
2018-12-08T10:34:08.062Z,9.70
2018-12-08T10:36:36.055Z,9.83
2018-12-08T10:39:06.147Z,10.13
2018-12-08T10:41:33.987Z,13.07
2018-12-08T10:44:02.044Z,8.27
2018-12-08T10:46:30.122Z,9.63
2018-12-08T10:48:58.439Z,12.03
2018-12-08T10:51:26.547Z,10.33
2018-12-08T10:53:55.570Z,9.13
2018-12-08T10:56:23.462Z,15.30
2018-12-08T10:58:51.278Z,13.20
2018-12-08T11:01:23.713Z,6.97
2018-12-08T11:03:51.699Z,10.30
2018-12-08T11:06:19.784Z,11.83
2018-12-08T11:08:47.696Z,14.47
2018-12-08T11:11:15.514Z,10.40
2018-12-08T11:13:43.410Z,10.80
2018-12-08T11:16:11.230Z,14.03
2018-12-08T11:18:39.111Z,12.70
2018-12-08T11:21:07.033Z,10.87
2018-12-08T11:23:34.876Z,12.43
2018-12-08T11:26:02.929Z,13.63
2018-12-08T11:28:30.991Z,11.27
2018-12-08T11:30:58.869Z,7.97
2018-12-08T11:33:26.974Z,11.60
2018-12-08T11:35:54.998Z,11.73
2018-12-08T11:38:22.881Z,13.27
2018-12-08T11:40:50.978Z,12.33
2018-12-08T11:43:19.143Z,14.63
2018-12-08T11:45:47.279Z,14.07
2018-12-08T11:48:15.145Z,13.17
2018-12-08T11:50:43.074Z,15.03
2018-12-08T11:53:12.969Z,14.00
2018-12-08T11:55:41.022Z,11.37
2018-12-08T11:58:09.316Z,13.37
2018-12-08T12:00:38.211Z,15.13
2018-12-08T12:03:06.044Z,18.07
2018-12-08T12:05:34.340Z,19.30
2018-12-08T12:08:02.399Z,14.70
2018-12-08T12:10:30.241Z,16.93
2018-12-08T12:12:58.083Z,18.43
2018-12-08T12:15:26.014Z,19.37
2018-12-08T12:17:53.940Z,18.57
2018-12-08T12:20:21.935Z,10.67
2018-12-08T12:22:49.975Z,18.80
2018-12-08T12:25:18.909Z,17.13
2018-12-08T12:27:47.208Z,18.90
2018-12-08T12:30:15.148Z,24.83
2018-12-08T12:32:43.148Z,13.80
2018-12-08T12:35:11.331Z,22.17
2018-12-08T12:37:39.469Z,23.90
2018-12-08T12:40:07.515Z,13.70
2018-12-08T12:42:35.362Z,19.80
2018-12-08T12:45:03.818Z,17.27
2018-12-08T12:47:31.758Z,19.03
2018-12-08T12:49:59.563Z,15.07
2018-12-08T12:52:27.455Z,15.93
2018-12-08T12:54:55.310Z,24.10
2018-12-08T12:57:23.188Z,21.00
2018-12-08T12:59:51.038Z,14.83
2018-12-08T13:02:18.881Z,20.17
2018-12-08T13:04:46.727Z,21.93
2018-12-08T13:07:14.614Z,21.10
2018-12-08T13:09:42.464Z,18.53
2018-12-08T13:12:10.573Z,24.30
2018-12-08T13:14:38.433Z,23.47
2018-12-08T13:17:06.303Z,26.27
2018-12-08T13:19:34.169Z,20.20
2018-12-08T13:22:02.043Z,20.27
2018-12-08T13:24:30.634Z,27.53
2018-12-08T13:26:58.506Z,28.03
2018-12-08T13:29:27.692Z,57.50
2018-12-08T13:31:55.756Z,38.87
2018-12-08T13:34:25.541Z,30.33
2018-12-08T13:36:53.503Z,24.63
2018-12-08T13:39:21.377Z,46.37
2018-12-08T13:41:49.224Z,18.70
2018-12-08T13:44:53.004Z,43.80
2018-12-08T13:47:20.835Z,24.93
2018-12-08T13:49:48.649Z,24.93
2018-12-08T13:52:16.532Z,22.00
2018-12-08T13:54:45.738Z,28.07
2018-12-08T13:57:13.598Z,25.97
2018-12-08T13:59:44.728Z,20.83
2018-12-08T14:02:13.054Z,51.07
2018-12-08T14:04:40.926Z,38.90
2018-12-08T14:07:08.771Z,23.53
2018-12-08T14:09:36.647Z,20.43
2018-12-08T14:12:04.488Z,16.80
2018-12-08T14:14:32.683Z,20.17
2018-12-08T14:17:00.746Z,18.87
2018-12-08T14:19:28.578Z,13.37
2018-12-08T14:21:56.443Z,18.37
2018-12-08T14:24:24.291Z,18.53
2018-12-08T14:26:52.159Z,19.37
2018-12-08T14:29:19.986Z,18.23
2018-12-08T14:31:48.153Z,21.10
2018-12-08T14:34:16.204Z,17.37
2018-12-08T14:36:44.077Z,21.80
2018-12-08T14:39:11.976Z,15.47
2018-12-08T14:41:41.087Z,15.10
2018-12-08T14:44:08.972Z,9.73
2018-12-08T14:46:37.831Z,14.80
2018-12-08T14:49:05.680Z,14.40
2018-12-08T14:51:33.987Z,17.20
2018-12-08T14:54:02.012Z,9.70
2018-12-08T14:56:30.076Z,17.00
2018-12-08T14:58:57.947Z,19.43
2018-12-08T15:01:26.061Z,18.23
2018-12-08T15:03:54.134Z,21.03
2018-12-08T15:06:22.612Z,22.87
2018-12-08T15:08:50.643Z,21.73
2018-12-08T15:11:18.489Z,20.73
2018-12-08T15:13:46.567Z,19.83
2018-12-08T15:16:14.642Z,19.53
2018-12-08T15:18:42.521Z,13.90
2018-12-08T15:21:10.610Z,16.17
2018-12-08T15:23:38.425Z,19.83
2018-12-08T15:26:06.277Z,16.37
2018-12-08T15:28:34.118Z,25.23
2018-12-08T15:31:01.962Z,19.73
2018-12-08T15:33:29.940Z,16.67
2018-12-08T15:35:57.751Z,6.63
2018-12-08T15:38:25.792Z,19.30
2018-12-08T15:40:53.782Z,22.83
2018-12-08T15:43:23.811Z,12.83
2018-12-08T15:45:51.659Z,13.47
2018-12-08T15:48:19.728Z,18.73
2018-12-08T15:50:47.607Z,18.03
2018-12-08T15:53:15.634Z,18.03
2018-12-08T15:55:43.492Z,24.17
2018-12-08T15:58:11.416Z,22.60
2018-12-08T16:00:39.305Z,23.67
2018-12-08T16:03:07.266Z,16.90
2018-12-08T16:05:35.146Z,20.60
2018-12-08T16:08:03.075Z,24.37
2018-12-08T16:10:30.898Z,15.80
2018-12-08T16:12:58.851Z,18.40
2018-12-08T16:15:26.844Z,16.93
2018-12-08T16:17:58.430Z,21.63
2018-12-08T16:20:26.308Z,14.43
2018-12-08T16:22:54.245Z,13.60
2018-12-08T16:25:22.289Z,12.73
2018-12-08T16:27:50.238Z,14.77
2018-12-08T16:30:18.120Z,11.10
2018-12-08T16:32:46.101Z,8.63
2018-12-08T16:35:13.941Z,4.93
2018-12-08T16:37:41.824Z,8.57
2018-12-08T16:40:09.708Z,4.73
2018-12-08T16:42:37.624Z,9.10
2018-12-08T16:45:06.837Z,2.77
2018-12-08T16:47:34.714Z,3.40
2018-12-08T16:50:02.667Z,7.03
2018-12-08T16:52:30.563Z,5.57
2018-12-08T16:54:58.399Z,7.03
2018-12-08T16:57:26.307Z,8.13
2018-12-08T16:59:54.170Z,7.60
2018-12-08T17:02:22.097Z,6.83
2018-12-08T17:04:49.928Z,10.87
2018-12-08T17:07:19.867Z,11.70
2018-12-08T17:09:47.715Z,7.67
2018-12-08T17:12:15.671Z,6.87
2018-12-08T17:14:43.570Z,7.57
2018-12-08T17:17:11.511Z,9.30
2018-12-08T17:19:39.351Z,8.20
2018-12-08T17:22:08.108Z,12.20
2018-12-08T17:24:35.965Z,8.93
2018-12-08T17:27:03.832Z,10.13
2018-12-08T17:29:31.698Z,7.37
2018-12-08T17:31:59.668Z,11.57
2018-12-08T17:34:27.515Z,8.50
2018-12-08T17:36:55.543Z,7.37
2018-12-08T17:39:23.383Z,6.87
2018-12-08T17:41:51.243Z,6.33
2018-12-08T17:44:21.141Z,6.83
2018-12-08T17:46:49.030Z,5.97
2018-12-08T17:49:16.884Z,6.43
2018-12-08T17:51:44.742Z,6.60
2018-12-08T17:54:12.640Z,8.00
2018-12-08T17:56:40.477Z,7.03
2018-12-08T17:59:08.306Z,7.67
2018-12-08T18:01:36.146Z,7.00
2018-12-08T18:04:04.088Z,5.63
2018-12-08T18:06:32.110Z,5.90
2018-12-08T18:08:59.921Z,5.33
2018-12-08T18:11:27.741Z,6.07
2018-12-08T18:13:55.574Z,6.70
2018-12-08T18:16:23.615Z,10.70
2018-12-08T18:18:51.569Z,9.17
2018-12-08T18:21:19.446Z,7.47
2018-12-08T18:23:47.456Z,7.87
2018-12-08T18:26:15.391Z,9.17
2018-12-08T18:28:43.208Z,6.30
2018-12-08T18:31:11.026Z,7.77
2018-12-08T18:33:38.914Z,7.23
2018-12-08T18:36:06.943Z,9.33
2018-12-08T18:38:34.740Z,8.87
2018-12-08T18:41:02.604Z,7.77
2018-12-08T18:43:30.421Z,7.73
2018-12-08T18:45:58.306Z,7.20
2018-12-08T18:48:26.156Z,6.13
2018-12-08T18:50:53.968Z,5.17
2018-12-08T18:53:21.848Z,5.17
2018-12-08T18:55:49.755Z,4.73
2018-12-08T18:58:17.694Z,7.77
2018-12-08T19:00:45.664Z,7.60
2018-12-08T19:03:13.568Z,8.13
2018-12-08T19:05:41.420Z,13.17
2018-12-08T19:08:09.295Z,12.57
2018-12-08T19:10:37.134Z,10.77
2018-12-08T19:13:05.159Z,13.03
2018-12-08T19:15:33.059Z,9.50
2018-12-08T19:18:00.943Z,13.30
2018-12-08T19:20:28.901Z,19.60
2018-12-08T19:22:56.823Z,12.73
2018-12-08T19:25:24.638Z,13.77
2018-12-08T19:27:52.495Z,17.23
2018-12-08T19:30:20.365Z,14.77
2018-12-08T19:32:48.216Z,15.33
2018-12-08T19:35:16.066Z,18.20
2018-12-08T19:37:43.899Z,13.70
2018-12-08T19:40:11.754Z,14.33
2018-12-08T19:42:39.673Z,8.40
2018-12-08T19:45:08.016Z,8.97
2018-12-08T19:47:35.850Z,11.40
2018-12-08T19:50:03.911Z,6.53
2018-12-08T19:52:31.791Z,10.67
2018-12-08T19:54:59.669Z,16.10
2018-12-08T19:57:27.572Z,29.10
2018-12-08T19:59:55.424Z,16.57
2018-12-08T20:02:23.300Z,18.50
2018-12-08T20:04:51.135Z,16.33
2018-12-08T20:07:18.965Z,19.77
2018-12-08T20:09:46.821Z,28.07
2018-12-08T20:12:14.726Z,12.47
2018-12-08T20:14:42.562Z,14.63
2018-12-08T20:17:10.412Z,21.50
2018-12-08T20:19:38.238Z,14.57
2018-12-08T20:22:06.142Z,14.10
2018-12-08T20:24:33.975Z,23.53
2018-12-08T20:27:01.838Z,18.23
2018-12-08T20:29:29.702Z,11.80
2018-12-08T20:31:57.534Z,10.80
2018-12-08T20:34:25.368Z,15.60
2018-12-08T20:36:53.199Z,17.30
2018-12-08T20:39:21.062Z,13.63
2018-12-08T20:41:48.888Z,18.37
2018-12-08T20:44:16.733Z,17.27
2018-12-08T20:46:44.569Z,15.23
2018-12-08T20:49:12.382Z,11.63
2018-12-08T20:51:40.255Z,15.57
2018-12-08T20:54:08.120Z,18.77
2018-12-08T20:56:35.970Z,16.03
2018-12-08T20:59:03.824Z,20.03
2018-12-08T21:01:31.694Z,19.80
2018-12-08T21:03:59.644Z,15.70
2018-12-08T21:06:27.471Z,18.17
2018-12-08T21:08:55.316Z,17.73
2018-12-08T21:11:23.194Z,17.27
2018-12-08T21:13:53.258Z,23.53
2018-12-08T21:16:21.093Z,26.10
2018-12-08T21:18:49.964Z,13.47
2018-12-08T21:21:17.823Z,11.93
2018-12-08T21:23:45.702Z,24.00
2018-12-08T21:26:13.576Z,18.57
2018-12-08T21:28:41.498Z,17.57
2018-12-08T21:31:10.510Z,31.83
2018-12-08T21:33:38.460Z,22.73
2018-12-08T21:36:06.364Z,20.30
2018-12-08T21:38:34.235Z,22.80
2018-12-08T21:41:03.205Z,31.63
2018-12-08T21:43:31.034Z,25.57
2018-12-08T21:45:59.949Z,30.63
2018-12-08T21:48:27.816Z,24.10
2018-12-08T21:50:55.741Z,20.27
2018-12-08T21:53:23.584Z,27.60
2018-12-08T21:55:51.535Z,25.63
2018-12-08T21:58:19.490Z,23.47
2018-12-08T22:00:48.590Z,28.87
2018-12-08T22:03:16.456Z,21.77
2018-12-08T22:05:45.302Z,30.10
2018-12-08T22:08:13.231Z,29.87
2018-12-08T22:10:41.119Z,26.63
2018-12-08T22:13:08.976Z,23.03
2018-12-08T22:15:41.957Z,25.00
2018-12-08T22:18:09.829Z,22.80
2018-12-08T22:20:37.731Z,29.47
2018-12-08T22:23:05.593Z,23.13
2018-12-08T22:25:33.435Z,22.40
2018-12-08T22:28:01.262Z,21.23
2018-12-08T22:30:29.139Z,23.47
2018-12-08T22:32:56.997Z,23.70
2018-12-08T22:35:24.876Z,18.93
2018-12-08T22:37:52.796Z,23.43
2018-12-08T22:40:21.727Z,21.47
2018-12-08T22:42:49.715Z,19.57
2018-12-08T22:45:17.651Z,16.17
2018-12-08T22:47:45.531Z,20.57
2018-12-08T22:50:13.407Z,17.17
2018-12-08T22:52:41.330Z,18.50
2018-12-08T22:55:09.162Z,15.53
2018-12-08T22:57:37.019Z,17.30
2018-12-08T23:00:09.502Z,23.23
2018-12-08T23:02:37.377Z,17.17
2018-12-08T23:05:05.249Z,18.97
2018-12-08T23:07:33.086Z,21.10
2018-12-08T23:10:01.094Z,15.97
2018-12-08T23:12:29.155Z,24.50
2018-12-08T23:14:57.052Z,22.60
2018-12-08T23:17:24.921Z,16.30
2018-12-08T23:19:52.767Z,19.03
2018-12-08T23:22:20.610Z,15.43
2018-12-08T23:24:48.479Z,22.63
2018-12-08T23:27:16.337Z,16.80
2018-12-08T23:29:44.154Z,18.97
2018-12-08T23:32:11.985Z,14.37
2018-12-08T23:34:39.914Z,18.93
2018-12-08T23:37:07.933Z,15.43
2018-12-08T23:39:39.156Z,14.23
2018-12-08T23:42:05.692Z,11.37
2018-12-08T23:44:33.552Z,15.97
2018-12-08T23:47:01.412Z,20.17
2018-12-08T23:49:29.293Z,19.20
2018-12-08T23:51:58.914Z,15.30
2018-12-08T23:54:26.832Z,15.83
2018-12-08T23:56:55.108Z,15.17
2018-12-08T23:59:22.960Z,18.63
